Terminal Aerodrome Forecast
Issued by NWS

Home | Current Version | Previous Version | Text Only | Print | Product List | Glossary On
Versions: 1 2 3 4 5 6 7 8 9 10 11 12 13 14
000
FTUS41 KBTV 021505 AAA
TAFMPV
TAF AMD
KMPV 021505Z 0215/0312 31014G24KT 5SM -SHSN OVC035
      TEMPO 0215/0218 31014G20KT 1 1/2SM -SHSN BR BKN021 OVC030
     FM022300 30015G25KT P6SM VCSH OVC050
     FM030600 32010G18KT P6SM BKN250=

USA.gov is the U.S. government's official web portal to all federal, state and local government web resources and services.